Latest Weather Observations for Low Isles

IDQ60801

Issued at 2:02 pm EST Friday 27 February 2015 (issued every 30 minutes, with the page automatically refreshed every 10 minutes)

About weather observations | Map of weather stations | Latest weather observations for QLD | Other Formats
Station Details ID: 031037 Name: LOW ISLES LIGHTHOUSE Lat: -16.38 Lon: 145.56 Height: 2.9 m
Data from the previous 72 hours. | See also: Recent months at Low Isles
Date/Time
EST
Temp
°C
App
Temp
°C
Dew
Point
Rel
Hum
%
Delta-T
°C
Wind Press
QNH
hPa
Press
MSL
hPa
Rain
since 9 am
mm
Dir
 
Spd
km/h
Gust
km/h
Spd
kts
Gust
kts
27/02:00pm 34.5 36.8 24.1 54 7.3 NE 19 22 10 12 1005.9 - 0.0
27/01:30pm 34.2 37.5 23.9 55 7.2 ENE 13 15 7 8 1006.6 - 0.0
27/01:00pm 33.5 37.3 23.5 55 6.9 ENE 9 11 5 6 1007.0 - 0.0
27/12:30pm 33.6 38.0 24.5 59 6.4 NE 9 13 5 7 1007.3 - 0.0
27/12:00pm 32.0 35.8 22.4 57 6.6 NNE 6 7 3 4 1007.7 1007.6 0.0
27/11:30am 32.2 37.7 24.0 62 5.7 NNW 2 6 1 3 1008.0 - 0.0
27/11:00am 30.8 35.6 24.2 68 4.6 S 6 7 3 4 1008.3 - 0.0
27/10:30am 30.0 34.4 23.4 67 4.5 SW 6 9 3 5 1008.4 - 0.0
27/10:00am 29.6 34.1 24.0 72 3.9 SW 7 9 4 5 1008.4 - 0.0
27/09:00am 27.8 31.1 23.8 79 2.8 W 13 15 7 8 1008.1 1008.0 0.0
27/08:30am 27.2 30.6 24.1 83 2.1 W 13 17 7 9 1008.1 - 0.0
27/08:00am 27.2 29.8 23.9 82 2.3 W 17 19 9 10 1007.8 - 0.0
27/07:30am 27.5 30.6 24.1 82 2.3 WNW 15 19 8 10 1007.5 - 0.0
27/07:00am 27.6 31.7 24.0 81 2.5 S 9 13 5 7 1007.1 - 0.0
27/06:30am 26.9 31.2 23.6 82 2.3 SE 7 11 4 6 1007.0 - 0.0
27/06:00am 27.5 31.7 24.1 82 2.4 SSW 9 17 5 9 1006.7 1006.6 0.0
27/05:30am 27.8 31.4 24.4 82 2.4 SSW 13 19 7 10 1006.3 - 0.0
27/05:00am 27.7 31.1 24.7 84 2.1 WSW 15 17 8 9 1006.0 - 0.0
27/04:30am 27.6 31.3 24.6 84 2.1 W 13 17 7 9 1005.7 - 0.0
27/04:00am 27.8 32.0 24.8 84 2.1 WSW 11 15 6 8 1005.8 - 0.0
27/03:30am 27.8 31.9 24.0 80 2.6 S 9 11 5 6 1005.9 - 0.0
27/03:00am 27.1 31.4 22.7 77 3.0 SSE 4 9 2 5 1006.1 1006.0 0.0
27/02:30am 27.0 32.2 22.8 78 2.8 CALM 0 0 0 0 1006.4 - 0.0
27/02:00am 27.0 30.9 23.0 79 2.7 SSE 7 9 4 5 1006.9 - 0.0
27/01:30am 27.0 31.1 23.0 79 2.7 ESE 6 7 3 4 1007.1 - 0.0
27/01:00am 27.4 31.0 23.0 77 3.0 SE 9 13 5 7 1007.4 - 0.0
27/12:30am 27.7 31.3 23.7 79 2.7 SE 11 15 6 8 1007.7 - 0.0
 
Date/Time
EST
Temp
°C
App
Temp
°C
Dew
Point
Rel
Hum
%
Delta-T
°C
Wind Press
QNH
hPa
Press
MSL
hPa
Rain
since 9 am
mm
Dir
 
Spd
km/h
Gust
km/h
Spd
kts
Gust
kts
26/11:30pm 27.7 31.5 23.5 78 2.9 ESE 9 11 5 6 1007.9 - 0.0
26/11:00pm 27.8 31.3 23.6 78 2.9 ESE 11 13 6 7 1008.2 - 0.0
26/10:30pm 28.1 31.2 23.5 76 3.2 ESE 13 17 7 9 1008.2 - 0.0
26/10:00pm 28.3 31.6 23.9 77 3.0 ESE 13 17 7 9 1008.0 - 0.0
26/09:30pm 28.0 31.9 23.6 77 3.0 ESE 9 13 5 7 1007.7 - 0.0
26/09:00pm 28.2 31.9 23.3 75 3.4 ESE 9 13 5 7 1007.3 1007.2 0.0
26/08:30pm 28.6 31.4 23.7 75 3.4 ESE 15 17 8 9 1006.9 - 0.0
26/08:00pm 28.7 32.0 23.8 75 3.4 ESE 13 17 7 9 1006.4 - 0.0
26/07:30pm 28.7 32.2 23.6 74 3.5 ESE 11 13 6 7 1006.1 - 0.0
26/07:00pm 29.1 32.0 23.8 73 3.7 SE 15 17 8 9 1006.0 - 0.0
26/06:30pm 29.5 32.3 23.7 71 4.0 ESE 15 20 8 11 1005.8 - 0.0
26/06:00pm 29.9 32.0 23.8 70 4.2 SE 19 22 10 12 1005.3 1005.2 0.0
26/05:30pm 30.2 32.1 23.4 67 4.7 ESE 19 24 10 13 1005.1 - 0.0
26/05:00pm 31.2 33.2 23.0 61 5.6 ESE 17 20 9 11 1005.0 - 0.0
26/04:30pm 32.2 34.7 23.2 59 6.2 ESE 15 20 8 11 1004.8 - 0.0
26/04:00pm 32.6 35.0 23.0 57 6.6 ESE 15 20 8 11 1004.8 - 0.0
26/03:30pm 34.1 37.2 23.5 54 7.4 E 13 17 7 9 1004.9 - 0.0
26/03:00pm 34.1 36.6 23.1 52 7.6 E 15 19 8 10 1005.1 1005.0 0.0
26/02:30pm 33.8 36.3 23.2 54 7.3 E 15 20 8 11 1005.4 - 0.0
26/02:00pm 34.7 37.7 24.0 53 7.5 E 15 19 8 10 1005.6 - 0.0
26/01:30pm 33.1 36.0 23.1 55 6.9 SE 13 17 7 9 1006.0 - 0.0
26/01:00pm 32.8 36.4 23.7 58 6.3 SSE 11 15 6 8 1006.4 - 0.0
26/12:30pm 31.5 35.3 24.1 65 5.2 SSE 11 15 6 8 1007.1 - 0.0
26/12:00pm 30.9 34.5 24.3 68 4.6 SSE 13 17 7 9 1007.8 1007.7 0.0
26/11:30am 30.1 33.7 24.3 71 4.0 SE 13 17 7 9 1008.2 - 0.0
26/11:00am 29.8 32.9 24.2 72 3.9 SSE 15 19 8 10 1008.4 - 0.0
26/10:30am 29.8 32.9 24.2 72 3.9 SSE 15 17 8 9 1008.3 - 0.0
26/10:00am 29.6 33.3 24.5 74 3.6 SE 13 15 7 8 1008.5 - 0.0
26/09:30am 29.3 32.5 24.4 75 3.4 SE 15 17 8 9 1008.4 - 0.0
26/09:00am 29.2 32.5 24.5 76 3.3 SE 15 17 8 9 1008.4 1008.3 0.0
26/08:30am 28.7 31.7 24.7 79 2.8 SSE 17 19 9 10 1008.3 - 0.0
26/08:00am 28.6 31.3 25.0 81 2.5 SSE 20 24 11 13 1008.2 - 0.0
26/07:30am 28.6 31.8 25.0 81 2.5 SE 17 20 9 11 1008.0 - 0.0
26/07:00am 28.3 31.6 25.1 83 2.2 SE 17 20 9 11 1007.7 - 0.0
26/06:30am 28.1 31.8 25.1 84 2.1 SE 15 19 8 10 1007.4 - 0.0
26/06:00am 27.9 31.9 25.1 85 2.0 S 13 15 7 8 1007.2 1007.1 0.0
26/05:30am 28.0 32.6 25.4 86 1.8 SW 11 15 6 8 1007.0 - 0.0
26/05:00am 27.9 32.1 24.7 83 2.2 WSW 11 15 6 8 1006.9 - 0.0
26/04:30am 28.1 33.2 24.9 83 2.2 SW 7 9 4 5 1006.9 - 0.0
26/04:00am 27.9 33.4 24.7 83 2.2 WSW 4 7 2 4 1006.7 - 0.0
26/03:30am 28.0 33.3 25.0 84 2.1 W 6 7 3 4 1006.7 - 0.0
26/03:00am 28.0 32.5 24.6 82 2.4 S 9 11 5 6 1006.6 1006.5 0.0
26/02:30am 28.2 32.3 24.6 81 2.5 SSE 11 13 6 7 1006.7 - 0.0
26/02:00am 28.0 32.6 24.8 83 2.2 SSE 9 11 5 6 1006.9 - 0.0
26/01:30am 27.5 31.8 24.3 83 2.2 SSE 9 11 5 6 1006.9 - 0.0
26/01:00am 28.5 32.8 24.9 81 2.5 SE 11 13 6 7 1006.9 - 0.0
26/12:30am 28.1 32.1 25.1 84 2.1 S 13 15 7 8 1007.1 - 0.0
26/12:00am 28.0 32.4 25.0 84 2.1 SSE 11 13 6 7 1007.4 1007.3 0.0
 
Date/Time
EST
Temp
°C
App
Temp
°C
Dew
Point
Rel
Hum
%
Delta-T
°C
Wind Press
QNH
hPa
Press
MSL
hPa
Rain
since 9 am
mm
Dir
 
Spd
km/h
Gust
km/h
Spd
kts
Gust
kts
25/11:30pm 28.1 32.9 25.1 84 2.1 SSW 9 11 5 6 1007.5 - 0.0
25/11:00pm 28.2 32.7 25.2 84 2.1 SW 11 13 6 7 1008.1 - 0.0
25/10:30pm 28.4 33.1 25.0 82 2.4 S 9 9 5 5 1008.3 - 0.0
25/10:00pm 28.5 33.1 24.7 80 2.7 SSE 9 9 5 5 1008.0 - 0.0
25/09:30pm 28.6 32.7 24.6 79 2.8 SSE 11 13 6 7 1007.9 - 0.0
25/09:00pm 28.7 33.0 24.9 80 2.7 S 11 15 6 8 1007.8 1007.7 0.0
25/08:30pm 28.8 31.9 24.8 79 2.8 SSE 17 19 9 10 1007.6 - 0.0
25/08:00pm 28.9 32.7 25.3 81 2.5 S 15 19 8 10 1007.3 - 0.0
25/07:30pm 28.9 32.4 24.9 79 2.8 SSE 15 17 8 9 1007.1 - 0.0
25/07:00pm 28.9 32.2 25.1 80 2.7 SE 17 20 9 11 1006.6 - 0.0
25/06:30pm 29.0 31.8 25.0 79 2.8 SE 19 24 10 13 1006.3 - 0.0
25/06:00pm 29.0 31.3 24.1 75 3.4 ESE 19 22 10 12 1006.0 1005.9 0.0
25/05:30pm 29.2 30.8 25.2 79 2.8 SSE 26 32 14 17 1005.7 - 0.0
25/05:00pm 29.2 31.3 25.4 80 2.7 SSE 24 26 13 14 1005.7 - 0.0
25/04:30pm 30.1 32.3 24.9 73 3.6 SE 22 26 12 14 1005.7 - 0.0
25/04:00pm 30.9 33.7 25.0 71 4.2 SE 19 22 10 12 1005.4 - 0.0
25/03:30pm 30.8 33.3 24.4 68 4.5 SE 19 20 10 11 1005.0 - 0.0
25/03:00pm 31.4 34.1 24.8 68 4.6 SSE 19 20 10 11 1005.5 1005.4 0.0
25/02:30pm 31.3 34.5 24.9 69 4.5 SSE 17 20 9 11 1006.0 - 0.0
25/02:00pm 31.2 34.2 25.3 71 4.2 SSE 19 20 10 11 1006.2 - 0.0
25/01:30pm 31.0 34.5 25.4 72 4.0 SSE 17 19 9 10 1006.9 - 0.0
25/01:00pm 30.5 33.7 24.9 72 3.9 SSE 17 20 9 11 1007.2 - 0.0
25/12:30pm 29.7 33.1 25.2 77 3.2 SSE 17 19 9 10 1007.7 - 0.0
25/12:00pm 29.4 31.7 24.5 75 3.4 SSE 20 20 11 11 1007.9 1007.8 0.0
25/11:30am 29.8 33.3 25.5 78 3.0 ESE 17 20 9 11 1008.5 - 0.0
25/11:00am 29.3 31.5 24.2 74 3.5 SE 20 24 11 13 1008.6 - 0.0
25/10:30am 29.6 31.8 24.0 72 3.9 SE 19 22 10 12 1008.6 - 0.0
25/10:00am 29.5 33.0 24.8 76 3.3 SE 15 17 8 9 1008.7 - 0.0
25/09:30am 29.0 32.4 24.6 77 3.1 SE 15 19 8 10 1008.9 - 0.0
25/09:00am 28.4 32.0 24.4 79 2.8 SW 13 15 7 8 1008.7 1008.6 0.0
25/08:30am 28.2 32.3 24.6 81 2.5 W 11 13 6 7 1008.5 - 0.0
25/08:00am 28.3 32.0 24.5 80 2.6 W 13 15 7 8 1008.0 - 0.0
25/07:30am 28.0 31.9 24.2 80 2.6 WNW 11 13 6 7 1007.8 - 0.0
25/07:00am 28.0 31.9 24.8 83 2.2 W 13 15 7 8 1007.5 - 0.0
25/06:30am 27.8 31.2 24.6 83 2.2 W 15 17 8 9 1007.1 - 0.0
25/06:00am 27.9 31.6 24.5 82 2.4 W 13 17 7 9 1007.0 1006.9 0.0
25/05:30am 28.0 31.2 24.4 81 2.5 W 15 19 8 10 1007.0 - 0.0
25/05:00am 27.8 30.5 24.2 81 2.5 W 17 20 9 11 1006.9 - 0.0
25/04:30am 28.0 30.4 24.2 80 2.6 W 19 20 10 11 1006.7 - 0.0
25/04:00am 27.9 30.6 24.7 83 2.2 W 19 20 10 11 1006.8 - 0.0
25/03:30am 28.8 32.0 23.7 74 3.5 SSW 13 15 7 8 1006.6 - 0.0
25/03:00am 28.6 31.6 23.3 73 3.6 SSW 13 15 7 8 1006.4 1006.3 0.0
25/02:30am 28.6 32.2 23.7 75 3.4 S 11 13 6 7 1006.3 - 0.0
25/02:00am 28.6 31.0 23.7 75 3.4 SSW 17 20 9 11 1006.4 - 0.0
25/01:30am 28.9 31.0 23.8 74 3.5 SSW 19 22 10 12 1006.7 - 0.0
25/01:00am 28.3 29.0 23.7 76 3.2 SSW 26 30 14 16 1006.6 - 0.0
25/12:30am 28.8 29.2 23.7 74 3.5 SSW 28 32 15 17 1006.8 - 0.0
25/12:00am 28.8 29.6 24.4 77 3.1 SW 28 32 15 17 1007.2 1007.1 0.0
 
Date/Time
EST
Temp
°C
App
Temp
°C
Dew
Point
Rel
Hum
%
Delta-T
°C
Wind Press
QNH
hPa
Press
MSL
hPa
Rain
since 9 am
mm
Dir
 
Spd
km/h
Gust
km/h
Spd
kts
Gust
kts
24/11:30pm 28.9 30.8 23.8 74 3.5 SW 20 24 11 13 1007.4 - 0.0
24/11:00pm 28.9 31.1 24.2 76 3.3 SSW 20 24 11 13 1007.5 - 0.0
24/10:30pm 28.7 30.2 24.3 77 3.1 SSW 24 28 13 15 1007.6 - 0.0
24/10:00pm 28.7 30.2 24.3 77 3.1 SSW 24 28 13 15 1007.8 - 0.0
24/09:30pm 28.8 30.1 24.6 78 2.9 S 26 30 14 16 1008.1 - 0.0
24/09:00pm 28.8 30.3 24.4 77 3.1 SSW 24 28 13 15 1008.1 1008.0 0.0
24/08:30pm 28.9 31.0 24.7 78 2.9 SSW 22 24 12 13 1007.5 - 0.0
24/08:00pm 28.5 30.5 24.5 79 2.8 SSW 22 28 12 15 1007.6 - 0.0
24/07:30pm 28.3 30.3 24.5 80 2.6 S 22 26 12 14 1007.3 - 0.0
24/07:00pm 28.3 28.9 24.1 78 2.9 SW 28 30 15 16 1006.4 - 0.0
24/06:30pm 28.8 28.9 24.8 79 2.8 SW 33 39 18 21 1006.6 - 0.0
24/06:00pm 29.4 26.8 23.6 71 4.0 SW 43 48 23 26 1006.5 1006.4 0.0
24/05:57pm 29.7 27.3 23.9 71 4.0 SSW 43 46 23 25 1006.5 - 0.0
24/05:30pm 30.5 35.8 25.3 74 3.7 S 7 7 4 4 1005.8 - 0.0
24/05:00pm 30.6 35.7 25.0 72 3.9 E 7 7 4 4 1005.1 - 0.0
24/04:30pm 31.9 37.3 26.0 71 4.2 NNE 9 9 5 5 1005.0 - 0.0
24/04:00pm 32.4 37.4 26.0 69 4.6 N 11 13 6 7 1005.3 - 0.0
24/03:30pm 32.9 38.1 25.7 66 5.1 N 9 13 5 7 1005.6 - 0.0
24/03:00pm 34.0 39.3 27.0 67 5.1 NE 13 15 7 8 1005.5 1005.4 0.0
24/02:30pm 34.0 39.3 27.5 69 4.7 NE 15 17 8 9 1006.1 - 0.0

Other Formats:

Comma delimited format used in spreadsheet applications
http://www.bom.gov.au/fwo/IDQ60801/IDQ60801.94285.axf

JavaScript Object Notation format (JSON) in row-major order
http://www.bom.gov.au/fwo/IDQ60801/IDQ60801.94285.json